TKY78M VOBG-OPIS
Flight info
| Callsign | TKY78M |
|---|---|
| Flight time | N/A |
| Altitude | 41000 |
| Route | MOTRI Q22 VIRAM W57 SAKRO Q22 HIA/N0482F430 W20 PUKES Q24 DPN J24 ASARI L509 SULOM/N0483F400 L509 INDEK |
| Aircraft | A359/H-SDE2E3GHIJ3J4J5LM1ORWXY/LB1D1 |
Departure
| Time | 2026-05-09 21:20 |
|---|---|
| Airport | HAL Airport (VOBG) |
Arrival
| Time | N/A |
|---|---|
| Airport | Islamabad International Airport (OPIS) |
| Time | Latitude | Longitude | Altitude | Speed | Heading |
|---|---|---|---|---|---|
| 2026-05-09 21:04 | 12.95356 | 77.66355 | 2906 ft | 0 kts | 4° |
| 2026-05-09 21:12 | 12.95373 | 77.66385 | 2908 ft | 8 kts | 217° |
| 2026-05-09 21:12 | 12.95372 | 77.66386 | 2921 ft | 0 kts | 213° |
| 2026-05-09 21:13 | 12.95310 | 77.66320 | 2903 ft | 0 kts | 253° |
| 2026-05-09 21:16 | 12.95307 | 77.66315 | 2902 ft | 5 kts | 243° |
| 2026-05-09 21:16 | 12.95258 | 77.66294 | 2900 ft | 11 kts | 205° |
| 2026-05-09 21:17 | 12.95222 | 77.66212 | 2897 ft | 15 kts | 266° |
| 2026-05-09 21:17 | 12.95215 | 77.66087 | 2896 ft | 19 kts | 267° |
| 2026-05-09 21:17 | 12.95203 | 77.65936 | 2894 ft | 23 kts | 265° |
| 2026-05-09 21:17 | 12.95190 | 77.65754 | 2890 ft | 27 kts | 265° |
| 2026-05-09 21:18 | 12.95177 | 77.65555 | 2891 ft | 28 kts | 266° |
| 2026-05-09 21:18 | 12.95152 | 77.65409 | 2890 ft | 11 kts | 223° |
| 2026-05-09 21:18 | 12.95076 | 77.65395 | 2890 ft | 12 kts | 180° |
| 2026-05-09 21:18 | 12.94989 | 77.65402 | 2891 ft | 13 kts | 174° |
| 2026-05-09 21:19 | 12.94894 | 77.65567 | 2894 ft | 16 kts | 84° |
| 2026-05-09 21:19 | 12.94926 | 77.65933 | 2893 ft | 87 kts | 85° |
| 2026-05-09 21:20 | 12.95001 | 77.66768 | 2898 ft | 146 kts | 84° |
| 2026-05-09 21:20 | 12.95103 | 77.67940 | 3245 ft | 169 kts | 85° |
| 2026-05-09 21:20 | 12.95190 | 77.69096 | 4196 ft | 160 kts | 86° |
| 2026-05-09 21:20 | 12.95280 | 77.70306 | 4625 ft | 183 kts | 86° |
| 2026-05-09 21:21 | 12.95448 | 77.71673 | 4879 ft | 211 kts | 76° |
| 2026-05-09 21:21 | 12.96289 | 77.72979 | 5281 ft | 233 kts | 43° |
| 2026-05-09 21:22 | 12.95194 | 77.65801 | 2891 ft | 28 kts | 265° |
| 2026-05-09 21:22 | 12.95180 | 77.65597 | 2890 ft | 29 kts | 266° |
| 2026-05-09 21:22 | 12.95164 | 77.65407 | 2890 ft | 12 kts | 253° |
| 2026-05-09 21:23 | 12.95136 | 77.65386 | 2890 ft | 0 kts | 189° |
| 2026-05-09 21:31 | 12.95105 | 77.65388 | 2890 ft | 14 kts | 174° |
| 2026-05-09 21:31 | 12.94961 | 77.65403 | 2891 ft | 23 kts | 174° |
| 2026-05-09 21:31 | 12.94881 | 77.65462 | 2893 ft | 11 kts | 82° |
| 2026-05-09 21:31 | 12.94892 | 77.65541 | 2894 ft | 12 kts | 83° |
| 2026-05-09 21:32 | 12.94898 | 77.65624 | 2895 ft | 12 kts | 85° |
| 2026-05-09 21:32 | 12.94924 | 77.65909 | 2893 ft | 76 kts | 85° |
| 2026-05-09 21:32 | 12.94993 | 77.66675 | 2897 ft | 137 kts | 85° |
| 2026-05-09 21:32 | 12.95100 | 77.67803 | 3169 ft | 165 kts | 84° |
| 2026-05-09 21:33 | 12.95220 | 77.68925 | 4095 ft | 157 kts | 85° |
| 2026-05-09 21:33 | 12.95329 | 77.70116 | 4499 ft | 180 kts | 86° |
| 2026-05-09 21:33 | 12.95447 | 77.71493 | 4801 ft | 208 kts | 85° |
| 2026-05-09 21:33 | 12.95754 | 77.73026 | 5043 ft | 237 kts | 66° |
| 2026-05-09 21:34 | 12.96845 | 77.74392 | 5490 ft | 260 kts | 38° |
| 2026-05-09 21:34 | 12.98390 | 77.75390 | 6314 ft | 265 kts | 29° |
| 2026-05-09 21:34 | 13.00106 | 77.76037 | 7184 ft | 268 kts | 18° |
| 2026-05-09 21:34 | 13.01936 | 77.76476 | 8033 ft | 272 kts | 13° |
| 2026-05-09 21:35 | 13.03821 | 77.76777 | 8951 ft | 276 kts | 9° |
| 2026-05-09 21:35 | 13.05737 | 77.76995 | 9880 ft | 279 kts | 8° |
| 2026-05-09 21:35 | 13.07701 | 77.77180 | 10480 ft | 292 kts | 7° |
| 2026-05-09 21:35 | 13.09807 | 77.77373 | 10829 ft | 315 kts | 7° |
| 2026-05-09 21:36 | 13.12054 | 77.77584 | 11231 ft | 331 kts | 7° |
| 2026-05-09 21:36 | 13.14378 | 77.77812 | 11874 ft | 339 kts | 7° |
| 2026-05-09 21:36 | 13.16704 | 77.78049 | 12622 ft | 343 kts | 6° |
| 2026-05-09 21:36 | 13.19087 | 77.78297 | 13392 ft | 346 kts | 6° |
| 2026-05-09 21:37 | 13.21497 | 77.78552 | 14114 ft | 350 kts | 6° |
| 2026-05-09 21:37 | 13.23941 | 77.78813 | 14739 ft | 356 kts | 6° |
| 2026-05-09 21:37 | 13.26424 | 77.79078 | 15330 ft | 362 kts | 6° |
| 2026-05-09 21:37 | 13.28945 | 77.79347 | 15930 ft | 367 kts | 6° |
| 2026-05-09 21:38 | 13.31504 | 77.79620 | 16540 ft | 372 kts | 6° |
| 2026-05-09 21:38 | 13.34095 | 77.79896 | 17148 ft | 377 kts | 6° |
| 2026-05-09 21:38 | 13.36684 | 77.80172 | 17728 ft | 382 kts | 6° |
| 2026-05-09 21:38 | 13.39343 | 77.80455 | 18316 ft | 386 kts | 6° |
| 2026-05-09 21:39 | 13.42033 | 77.80742 | 18857 ft | 390 kts | 6° |
| 2026-05-09 21:39 | 13.44742 | 77.81030 | 19372 ft | 393 kts | 6° |
| 2026-05-09 21:39 | 13.47473 | 77.81322 | 19914 ft | 397 kts | 6° |
| 2026-05-09 21:39 | 13.50232 | 77.81616 | 20451 ft | 400 kts | 6° |
| 2026-05-09 21:40 | 13.53014 | 77.81913 | 20978 ft | 403 kts | 6° |
| 2026-05-09 21:40 | 13.55818 | 77.82212 | 21509 ft | 407 kts | 6° |
| 2026-05-09 21:40 | 13.58647 | 77.82513 | 22026 ft | 411 kts | 6° |
| 2026-05-09 21:40 | 13.61464 | 77.82814 | 22549 ft | 414 kts | 6° |
| 2026-05-09 21:41 | 13.64341 | 77.83121 | 23035 ft | 418 kts | 6° |
| 2026-05-09 21:41 | 13.67243 | 77.83431 | 23516 ft | 421 kts | 6° |
| 2026-05-09 21:41 | 13.70171 | 77.83744 | 23917 ft | 425 kts | 6° |
| 2026-05-09 21:41 | 13.73124 | 77.84060 | 24327 ft | 428 kts | 6° |
| 2026-05-09 21:42 | 13.76094 | 77.84377 | 24763 ft | 430 kts | 6° |
| 2026-05-09 21:42 | 13.79078 | 77.84695 | 25211 ft | 433 kts | 5° |
| 2026-05-09 21:42 | 13.82091 | 77.85017 | 25687 ft | 436 kts | 5° |
| 2026-05-09 21:42 | 13.85078 | 77.85337 | 26178 ft | 439 kts | 5° |
| 2026-05-09 21:43 | 13.88132 | 77.85664 | 26683 ft | 443 kts | 5° |
| 2026-05-09 21:43 | 13.91206 | 77.85993 | 27171 ft | 446 kts | 5° |
| 2026-05-09 21:43 | 13.94307 | 77.86326 | 27682 ft | 450 kts | 5° |
| 2026-05-09 21:43 | 13.97431 | 77.86661 | 28192 ft | 453 kts | 5° |
| 2026-05-09 21:44 | 14.00580 | 77.86998 | 28692 ft | 457 kts | 5° |
| 2026-05-09 21:44 | 14.03759 | 77.87339 | 29160 ft | 461 kts | 5° |
| 2026-05-09 21:44 | 14.06955 | 77.87744 | 29634 ft | 465 kts | 7° |
| 2026-05-09 21:44 | 14.10116 | 77.88269 | 30071 ft | 468 kts | 9° |
| 2026-05-09 21:45 | 14.13339 | 77.88862 | 30436 ft | 473 kts | 9° |
| 2026-05-09 21:45 | 14.16584 | 77.89472 | 30803 ft | 476 kts | 9° |
| 2026-05-09 21:45 | 14.19863 | 77.90077 | 31164 ft | 480 kts | 9° |
| 2026-05-09 21:45 | 14.23164 | 77.90670 | 31524 ft | 484 kts | 9° |
| 2026-05-09 21:46 | 14.26497 | 77.91256 | 31884 ft | 487 kts | 9° |
| 2026-05-09 21:46 | 14.29852 | 77.91837 | 32230 ft | 491 kts | 8° |
| 2026-05-09 21:46 | 14.33229 | 77.92416 | 32574 ft | 494 kts | 8° |
| 2026-05-09 21:46 | 14.36628 | 77.92999 | 32895 ft | 497 kts | 8° |
| 2026-05-09 21:47 | 14.40056 | 77.93586 | 33223 ft | 500 kts | 8° |
| 2026-05-09 21:47 | 14.43455 | 77.94168 | 33523 ft | 504 kts | 8° |
| 2026-05-09 21:47 | 14.46923 | 77.94763 | 33828 ft | 507 kts | 8° |
| 2026-05-09 21:47 | 14.50409 | 77.95364 | 34085 ft | 509 kts | 8° |
| 2026-05-09 21:48 | 14.53913 | 77.95960 | 34361 ft | 512 kts | 8° |
| 2026-05-09 21:48 | 14.57423 | 77.96551 | 34713 ft | 511 kts | 8° |
| 2026-05-09 21:48 | 14.60933 | 77.97141 | 35142 ft | 510 kts | 8° |
| 2026-05-09 21:48 | 14.64429 | 77.97729 | 35541 ft | 508 kts | 8° |
| 2026-05-09 21:49 | 14.67914 | 77.98316 | 35943 ft | 507 kts | 8° |
| 2026-05-09 21:49 | 14.71393 | 77.98903 | 36340 ft | 506 kts | 8° |
| 2026-05-09 21:49 | 14.74864 | 77.99490 | 36715 ft | 505 kts | 8° |
| 2026-05-09 21:49 | 14.78289 | 78.00069 | 37096 ft | 504 kts | 8° |
| 2026-05-09 21:50 | 14.81744 | 78.00654 | 37477 ft | 503 kts | 8° |
| 2026-05-09 21:50 | 14.85202 | 78.01240 | 37863 ft | 502 kts | 8° |
| 2026-05-09 21:50 | 14.92079 | 78.02406 | 38593 ft | 500 kts | 8° |
| 2026-05-09 21:51 | 14.95507 | 78.02988 | 38901 ft | 499 kts | 8° |
| 2026-05-09 21:51 | 14.98933 | 78.03569 | 39217 ft | 498 kts | 8° |
| 2026-05-09 21:51 | 15.02348 | 78.04148 | 39522 ft | 496 kts | 8° |
| 2026-05-09 21:51 | 15.05751 | 78.04726 | 39810 ft | 495 kts | 8° |
| 2026-05-09 21:52 | 15.09103 | 78.05295 | 40118 ft | 494 kts | 8° |
| 2026-05-09 21:52 | 15.12485 | 78.05869 | 40417 ft | 492 kts | 8° |
| 2026-05-09 21:52 | 15.15865 | 78.06444 | 40691 ft | 491 kts | 8° |
| 2026-05-09 21:52 | 15.19243 | 78.07018 | 40823 ft | 493 kts | 8° |
| 2026-05-09 21:53 | 15.22625 | 78.07592 | 40836 ft | 493 kts | 8° |
| 2026-05-09 21:53 | 15.29402 | 78.08745 | 40838 ft | 494 kts | 8° |
| 2026-05-09 21:54 | 15.39529 | 78.10467 | 40840 ft | 494 kts | 7° |
| 2026-05-09 21:54 | 15.46316 | 78.11583 | 40841 ft | 494 kts | 7° |
| 2026-05-09 21:55 | 15.53102 | 78.12689 | 40843 ft | 494 kts | 7° |
| 2026-05-09 21:55 | 15.59881 | 78.13801 | 40843 ft | 493 kts | 7° |
| 2026-05-09 21:56 | 15.66660 | 78.14918 | 40847 ft | 493 kts | 7° |
| 2026-05-09 21:56 | 15.73391 | 78.16029 | 40851 ft | 493 kts | 7° |
| 2026-05-09 21:57 | 15.80158 | 78.17133 | 40855 ft | 492 kts | 7° |
| 2026-05-09 21:57 | 15.86929 | 78.18233 | 40854 ft | 492 kts | 7° |
| 2026-05-09 21:58 | 15.93698 | 78.19335 | 40854 ft | 492 kts | 7° |
| 2026-05-09 21:58 | 16.00467 | 78.20439 | 40859 ft | 492 kts | 7° |
| 2026-05-09 21:59 | 16.07188 | 78.21536 | 40861 ft | 492 kts | 7° |
| 2026-05-09 21:59 | 16.13957 | 78.22642 | 40869 ft | 492 kts | 7° |
| 2026-05-09 22:00 | 16.20720 | 78.23747 | 40872 ft | 492 kts | 7° |
| 2026-05-09 22:00 | 16.27487 | 78.24854 | 40876 ft | 492 kts | 7° |
| 2026-05-09 22:01 | 16.34210 | 78.25955 | 40883 ft | 492 kts | 7° |
| 2026-05-09 22:01 | 16.40981 | 78.27064 | 40888 ft | 493 kts | 7° |
| 2026-05-09 22:02 | 16.47757 | 78.28175 | 40893 ft | 493 kts | 7° |
| 2026-05-09 22:02 | 16.54528 | 78.29286 | 40898 ft | 493 kts | 7° |
| 2026-05-09 22:03 | 16.61248 | 78.30394 | 40903 ft | 493 kts | 7° |
| 2026-05-09 22:03 | 16.68022 | 78.31508 | 40902 ft | 493 kts | 7° |
| 2026-05-09 22:04 | 16.74799 | 78.32621 | 40908 ft | 493 kts | 7° |
| 2026-05-09 22:04 | 16.81575 | 78.33736 | 40912 ft | 493 kts | 7° |
| 2026-05-09 22:05 | 16.88305 | 78.34846 | 40918 ft | 493 kts | 7° |
| 2026-05-09 22:05 | 16.95082 | 78.35964 | 40927 ft | 493 kts | 6° |
| 2026-05-09 22:06 | 17.01865 | 78.37084 | 40927 ft | 493 kts | 6° |
| 2026-05-09 22:06 | 17.08649 | 78.38205 | 40933 ft | 493 kts | 6° |
| 2026-05-09 22:07 | 17.15383 | 78.39318 | 40941 ft | 493 kts | 6° |
| 2026-05-09 22:07 | 17.22179 | 78.40246 | 40944 ft | 491 kts | 359° |
| 2026-05-09 22:08 | 17.28954 | 78.39774 | 40938 ft | 487 kts | 351° |
| 2026-05-09 22:08 | 17.35673 | 78.38874 | 40936 ft | 487 kts | 349° |
| 2026-05-09 22:09 | 17.42339 | 78.37915 | 40910 ft | 487 kts | 349° |
| 2026-05-09 22:09 | 17.49046 | 78.36963 | 40907 ft | 486 kts | 349° |
| 2026-05-09 22:10 | 17.55754 | 78.36026 | 40903 ft | 486 kts | 349° |
| 2026-05-09 22:10 | 17.62452 | 78.35096 | 40895 ft | 486 kts | 349° |
| 2026-05-09 22:11 | 17.69105 | 78.34171 | 40888 ft | 485 kts | 349° |
| 2026-05-09 22:11 | 17.75803 | 78.33239 | 40883 ft | 485 kts | 349° |
| 2026-05-09 22:12 | 17.82490 | 78.32307 | 40876 ft | 485 kts | 349° |
| 2026-05-09 22:12 | 17.89172 | 78.31375 | 40874 ft | 484 kts | 349° |
| 2026-05-09 22:13 | 17.95806 | 78.30450 | 40874 ft | 484 kts | 349° |
| 2026-05-09 22:13 | 18.02475 | 78.29519 | 40865 ft | 483 kts | 349° |
| 2026-05-09 22:14 | 18.09138 | 78.28597 | 40857 ft | 483 kts | 349° |
| 2026-05-09 22:14 | 18.15801 | 78.27679 | 40862 ft | 483 kts | 349° |
| 2026-05-09 22:15 | 18.22407 | 78.26767 | 40852 ft | 482 kts | 348° |
| 2026-05-09 22:15 | 18.29058 | 78.25847 | 40848 ft | 482 kts | 348° |
| 2026-05-09 22:16 | 18.35699 | 78.24927 | 40847 ft | 481 kts | 348° |
| 2026-05-09 22:16 | 18.42334 | 78.24009 | 40847 ft | 481 kts | 348° |
| 2026-05-09 22:17 | 18.48916 | 78.23096 | 40854 ft | 480 kts | 348° |
| 2026-05-09 22:17 | 18.55538 | 78.22176 | 40846 ft | 480 kts | 348° |
| 2026-05-09 22:18 | 18.62158 | 78.21257 | 40849 ft | 480 kts | 349° |
| 2026-05-09 22:18 | 18.68777 | 78.20337 | 40849 ft | 480 kts | 349° |
| 2026-05-09 22:19 | 18.75347 | 78.19423 | 40845 ft | 479 kts | 349° |
| 2026-05-09 22:19 | 18.81965 | 78.18502 | 40847 ft | 479 kts | 349° |
| 2026-05-09 22:20 | 18.88574 | 78.17581 | 40844 ft | 479 kts | 349° |
| 2026-05-09 22:20 | 18.95192 | 78.16658 | 40841 ft | 479 kts | 349° |
| 2026-05-09 22:21 | 19.01805 | 78.15736 | 40841 ft | 480 kts | 349° |
| 2026-05-09 22:21 | 19.08379 | 78.14818 | 40838 ft | 480 kts | 349° |
| 2026-05-09 22:22 | 19.14996 | 78.13894 | 40841 ft | 480 kts | 349° |
| 2026-05-09 22:22 | 19.21616 | 78.12968 | 40838 ft | 480 kts | 349° |
| 2026-05-09 22:23 | 19.28230 | 78.12004 | 40842 ft | 479 kts | 347° |
| 2026-05-09 22:23 | 19.34736 | 78.10747 | 40840 ft | 478 kts | 346° |
| 2026-05-09 22:24 | 19.41272 | 78.09414 | 40837 ft | 479 kts | 346° |
| 2026-05-09 22:24 | 19.47829 | 78.08120 | 40837 ft | 479 kts | 346° |
| 2026-05-09 22:25 | 19.54385 | 78.06858 | 40838 ft | 479 kts | 346° |
| 2026-05-09 22:25 | 19.60949 | 78.05602 | 40829 ft | 479 kts | 347° |
| 2026-05-09 22:26 | 19.67468 | 78.04352 | 40830 ft | 479 kts | 347° |
| 2026-05-09 22:26 | 19.74017 | 78.03094 | 40826 ft | 478 kts | 347° |
| 2026-05-09 22:27 | 19.80564 | 78.01834 | 40825 ft | 478 kts | 347° |
| 2026-05-09 22:27 | 19.87102 | 78.00574 | 40824 ft | 477 kts | 347° |
| 2026-05-09 22:28 | 19.93591 | 77.99323 | 40825 ft | 477 kts | 347° |
| 2026-05-09 22:28 | 20.00113 | 77.98065 | 40824 ft | 476 kts | 347° |
| 2026-05-09 22:29 | 20.06624 | 77.96808 | 40827 ft | 475 kts | 347° |
| 2026-05-09 22:29 | 20.13125 | 77.95552 | 40832 ft | 474 kts | 347° |
| 2026-05-09 22:30 | 20.19568 | 77.94306 | 40832 ft | 473 kts | 347° |
| 2026-05-09 22:30 | 20.26036 | 77.93054 | 40835 ft | 472 kts | 347° |
| 2026-05-09 22:31 | 20.32494 | 77.91804 | 40836 ft | 471 kts | 347° |
| 2026-05-09 22:31 | 20.38944 | 77.90553 | 40835 ft | 470 kts | 347° |
| 2026-05-09 22:32 | 20.45379 | 77.89303 | 40836 ft | 470 kts | 347° |
| 2026-05-09 22:32 | 20.51758 | 77.88065 | 40833 ft | 469 kts | 347° |
| 2026-05-09 22:33 | 20.57506 | 77.86974 | 40830 ft | 468 kts | 347° |
| 2026-05-09 22:33 | 20.63921 | 77.85793 | 40830 ft | 467 kts | 347° |
| 2026-05-09 22:34 | 20.70326 | 77.84614 | 40830 ft | 467 kts | 347° |
| 2026-05-09 22:34 | 20.76663 | 77.83328 | 40825 ft | 466 kts | 346° |
| 2026-05-09 22:35 | 20.83018 | 77.81967 | 40827 ft | 466 kts | 346° |
| 2026-05-09 22:35 | 20.89377 | 77.80620 | 40826 ft | 466 kts | 346° |
| 2026-05-09 22:36 | 20.95740 | 77.79302 | 40827 ft | 466 kts | 346° |
| 2026-05-09 22:36 | 21.02067 | 77.78041 | 40832 ft | 466 kts | 346° |
| 2026-05-09 22:37 | 21.08434 | 77.76778 | 40839 ft | 465 kts | 346° |
| 2026-05-09 22:37 | 21.14798 | 77.75507 | 40839 ft | 465 kts | 346° |
| 2026-05-09 22:38 | 21.21164 | 77.74231 | 40843 ft | 465 kts | 346° |
| 2026-05-09 22:39 | 21.30707 | 77.72315 | 40854 ft | 465 kts | 346° |
| 2026-05-09 22:39 | 21.37017 | 77.71046 | 40858 ft | 465 kts | 346° |
| 2026-05-09 22:40 | 21.46564 | 77.69125 | 40862 ft | 466 kts | 346° |
| 2026-05-09 22:40 | 21.52934 | 77.67843 | 40865 ft | 466 kts | 346° |
| 2026-05-09 22:41 | 21.59269 | 77.66619 | 40868 ft | 466 kts | 347° |
| 2026-05-09 22:41 | 21.65655 | 77.65412 | 40869 ft | 466 kts | 347° |
| 2026-05-09 22:42 | 21.72044 | 77.64196 | 40869 ft | 466 kts | 347° |
| 2026-05-09 22:42 | 21.78429 | 77.62972 | 40868 ft | 466 kts | 347° |
| 2026-05-09 22:43 | 21.84778 | 77.61751 | 40864 ft | 466 kts | 347° |
| 2026-05-09 22:43 | 21.91168 | 77.60520 | 40865 ft | 467 kts | 347° |
| 2026-05-09 22:44 | 21.97558 | 77.59290 | 40863 ft | 467 kts | 347° |
| 2026-05-09 22:44 | 22.03950 | 77.58058 | 40858 ft | 467 kts | 347° |
| 2026-05-09 22:45 | 22.10346 | 77.56825 | 40861 ft | 467 kts | 347° |
| 2026-05-09 22:45 | 22.16689 | 77.55603 | 40860 ft | 466 kts | 347° |
| 2026-05-09 22:46 | 22.23064 | 77.54357 | 40858 ft | 465 kts | 347° |
| 2026-05-09 22:47 | 22.32615 | 77.52486 | 40852 ft | 464 kts | 347° |
| 2026-05-09 22:47 | 22.38931 | 77.51252 | 40851 ft | 464 kts | 347° |
| 2026-05-09 22:48 | 22.45271 | 77.50013 | 40847 ft | 463 kts | 347° |
| 2026-05-09 22:48 | 22.51610 | 77.48772 | 40845 ft | 463 kts | 347° |
| 2026-05-09 22:49 | 22.57944 | 77.47532 | 40846 ft | 462 kts | 347° |
| 2026-05-09 22:49 | 22.64228 | 77.46300 | 40845 ft | 462 kts | 347° |
| 2026-05-09 22:50 | 22.70551 | 77.45059 | 40843 ft | 462 kts | 347° |
| 2026-05-09 22:50 | 22.76865 | 77.43819 | 40847 ft | 461 kts | 347° |
| 2026-05-09 22:51 | 22.83178 | 77.42578 | 40843 ft | 461 kts | 347° |
| 2026-05-09 22:51 | 22.89491 | 77.41335 | 40849 ft | 461 kts | 347° |
| 2026-05-09 22:52 | 22.95760 | 77.40100 | 40851 ft | 461 kts | 347° |
| 2026-05-09 22:52 | 23.02061 | 77.38858 | 40849 ft | 460 kts | 347° |
| 2026-05-09 22:53 | 23.08364 | 77.37614 | 40850 ft | 460 kts | 347° |
| 2026-05-09 22:53 | 23.14660 | 77.36371 | 40852 ft | 460 kts | 347° |
| 2026-05-09 22:54 | 23.20915 | 77.35134 | 40849 ft | 460 kts | 347° |
| 2026-05-09 22:54 | 23.27208 | 77.33921 | 40854 ft | 461 kts | 349° |
| 2026-05-09 22:55 | 23.33623 | 77.33401 | 40855 ft | 462 kts | 354° |
| 2026-05-09 22:55 | 23.40051 | 77.33086 | 40857 ft | 463 kts | 354° |
| 2026-05-09 22:56 | 23.46442 | 77.32808 | 40858 ft | 463 kts | 354° |
| 2026-05-09 22:56 | 23.52870 | 77.32519 | 40859 ft | 462 kts | 354° |
| 2026-05-09 22:57 | 23.59299 | 77.32222 | 40859 ft | 462 kts | 354° |
| 2026-05-09 22:57 | 23.65717 | 77.31921 | 40858 ft | 462 kts | 354° |
| 2026-05-09 22:58 | 23.72095 | 77.31622 | 40858 ft | 462 kts | 354° |
| 2026-05-09 22:58 | 23.78511 | 77.31321 | 40856 ft | 461 kts | 354° |
| 2026-05-09 22:59 | 23.84919 | 77.31021 | 40854 ft | 461 kts | 354° |
| 2026-05-09 22:59 | 23.91326 | 77.30720 | 40857 ft | 461 kts | 354° |
| 2026-05-09 23:00 | 23.97736 | 77.30419 | 40858 ft | 461 kts | 354° |
| 2026-05-09 23:00 | 24.04099 | 77.30119 | 40861 ft | 461 kts | 354° |
| 2026-05-09 23:01 | 24.10510 | 77.29817 | 40860 ft | 461 kts | 354° |
| 2026-05-09 23:01 | 24.16913 | 77.29516 | 40862 ft | 461 kts | 354° |
| 2026-05-09 23:02 | 24.23317 | 77.29214 | 40861 ft | 460 kts | 354° |
| 2026-05-09 23:02 | 24.29671 | 77.28914 | 40864 ft | 460 kts | 354° |
| 2026-05-09 23:03 | 24.36070 | 77.28611 | 40869 ft | 460 kts | 354° |
| 2026-05-09 23:03 | 24.42460 | 77.28309 | 40859 ft | 459 kts | 354° |
| 2026-05-09 23:04 | 24.48849 | 77.28009 | 40935 ft | 460 kts | 352° |
| 2026-05-09 23:04 | 24.55200 | 77.27712 | 40865 ft | 461 kts | 352° |
| 2026-05-09 23:05 | 24.61602 | 77.27403 | 40865 ft | 461 kts | 351° |
| 2026-05-09 23:05 | 24.68006 | 77.27096 | 40867 ft | 460 kts | 352° |
| 2026-05-09 23:06 | 24.74401 | 77.26803 | 40862 ft | 460 kts | 352° |
| 2026-05-09 23:06 | 24.80801 | 77.26534 | 40862 ft | 460 kts | 352° |
| 2026-05-09 23:07 | 24.87148 | 77.26270 | 40862 ft | 459 kts | 352° |
| 2026-05-09 23:07 | 24.93540 | 77.25999 | 40862 ft | 460 kts | 352° |
| 2026-05-09 23:08 | 24.99925 | 77.25727 | 40858 ft | 459 kts | 352° |
| 2026-05-09 23:08 | 25.06320 | 77.25475 | 40862 ft | 460 kts | 352° |
| 2026-05-09 23:09 | 25.12712 | 77.25252 | 40861 ft | 460 kts | 353° |
| 2026-05-09 23:09 | 25.19060 | 77.25030 | 40859 ft | 460 kts | 352° |
| 2026-05-09 23:10 | 25.25460 | 77.24800 | 40857 ft | 460 kts | 352° |
| 2026-05-09 23:10 | 25.31862 | 77.24567 | 40861 ft | 461 kts | 352° |
| 2026-05-09 23:11 | 25.38234 | 77.24335 | 40854 ft | 461 kts | 353° |
| 2026-05-09 23:11 | 25.44654 | 77.24101 | 40859 ft | 462 kts | 353° |
| 2026-05-09 23:12 | 25.51083 | 77.23867 | 40859 ft | 463 kts | 353° |
| 2026-05-09 23:12 | 25.57518 | 77.23632 | 40854 ft | 463 kts | 353° |
| 2026-05-09 23:13 | 25.63951 | 77.23397 | 40852 ft | 462 kts | 353° |
| 2026-05-09 23:13 | 25.70337 | 77.23164 | 40853 ft | 462 kts | 353° |
| 2026-05-09 23:14 | 25.76759 | 77.22929 | 40849 ft | 462 kts | 353° |
| 2026-05-09 23:14 | 25.83176 | 77.22694 | 40850 ft | 461 kts | 353° |
| 2026-05-09 23:15 | 25.89587 | 77.22459 | 40849 ft | 461 kts | 353° |
| 2026-05-09 23:15 | 25.95992 | 77.22224 | 40850 ft | 460 kts | 353° |
| 2026-05-09 23:16 | 26.02343 | 77.21990 | 40846 ft | 459 kts | 353° |
| 2026-05-09 23:16 | 26.08722 | 77.21756 | 40844 ft | 458 kts | 353° |
| 2026-05-09 23:17 | 26.15090 | 77.21522 | 40844 ft | 457 kts | 353° |
| 2026-05-09 23:17 | 26.21443 | 77.21223 | 40845 ft | 456 kts | 352° |
| 2026-05-09 23:18 | 26.27737 | 77.20877 | 40847 ft | 455 kts | 352° |
| 2026-05-09 23:18 | 26.34061 | 77.20537 | 40847 ft | 455 kts | 352° |
| 2026-05-09 23:19 | 26.40383 | 77.20208 | 40846 ft | 455 kts | 352° |
| 2026-05-09 23:19 | 26.46702 | 77.19885 | 40846 ft | 454 kts | 352° |
| 2026-05-09 23:20 | 26.52966 | 77.19564 | 40844 ft | 453 kts | 353° |
| 2026-05-09 23:21 | 26.71844 | 77.18592 | 40843 ft | 452 kts | 353° |
| 2026-05-09 23:22 | 26.78131 | 77.18267 | 40841 ft | 452 kts | 353° |
| 2026-05-09 23:22 | 26.84373 | 77.17944 | 40840 ft | 452 kts | 353° |
| 2026-05-09 23:23 | 26.90649 | 77.17619 | 40838 ft | 451 kts | 353° |
| 2026-05-09 23:23 | 26.96921 | 77.17294 | 40834 ft | 451 kts | 353° |
| 2026-05-09 23:24 | 27.03195 | 77.16968 | 40833 ft | 451 kts | 353° |
| 2026-05-09 23:24 | 27.09421 | 77.16644 | 40833 ft | 451 kts | 353° |
| 2026-05-09 23:25 | 27.15687 | 77.16318 | 40836 ft | 451 kts | 353° |
| 2026-05-09 23:25 | 27.21956 | 77.15991 | 40842 ft | 451 kts | 353° |
| 2026-05-09 23:26 | 27.28217 | 77.15664 | 40838 ft | 451 kts | 353° |
| 2026-05-09 23:26 | 27.34440 | 77.15339 | 40844 ft | 450 kts | 353° |
| 2026-05-09 23:27 | 27.40702 | 77.15012 | 40843 ft | 450 kts | 353° |
| 2026-05-09 23:27 | 27.46962 | 77.14684 | 40846 ft | 450 kts | 353° |
| 2026-05-09 23:28 | 27.53202 | 77.14357 | 40843 ft | 447 kts | 354° |
| 2026-05-09 23:28 | 27.59382 | 77.14037 | 40850 ft | 444 kts | 354° |
| 2026-05-09 23:29 | 27.65552 | 77.13714 | 40852 ft | 444 kts | 354° |
| 2026-05-09 23:29 | 27.71676 | 77.13411 | 40853 ft | 444 kts | 355° |
| 2026-05-09 23:30 | 27.77842 | 77.13126 | 40852 ft | 443 kts | 355° |
| 2026-05-09 23:30 | 27.84003 | 77.12838 | 40856 ft | 443 kts | 355° |
| 2026-05-09 23:31 | 27.90161 | 77.12546 | 40852 ft | 443 kts | 355° |
| 2026-05-09 23:31 | 27.96268 | 77.12255 | 40857 ft | 442 kts | 355° |
| 2026-05-09 23:32 | 28.02413 | 77.11961 | 40864 ft | 442 kts | 355° |
| 2026-05-09 23:32 | 28.08554 | 77.11667 | 40863 ft | 441 kts | 354° |
| 2026-05-09 23:33 | 28.14689 | 77.11374 | 40860 ft | 441 kts | 354° |
| 2026-05-09 23:33 | 28.20770 | 77.11083 | 40863 ft | 440 kts | 354° |
| 2026-05-09 23:34 | 28.26884 | 77.10789 | 40861 ft | 440 kts | 354° |
| 2026-05-09 23:34 | 28.32999 | 77.10495 | 40862 ft | 439 kts | 354° |
| 2026-05-09 23:35 | 28.39099 | 77.10202 | 40861 ft | 439 kts | 354° |
| 2026-05-09 23:35 | 28.45196 | 77.09909 | 40857 ft | 438 kts | 354° |
| 2026-05-09 23:36 | 28.51220 | 77.09420 | 40859 ft | 435 kts | 348° |
| 2026-05-09 23:36 | 28.56970 | 77.07437 | 40857 ft | 432 kts | 334° |
| 2026-05-09 23:37 | 28.61962 | 77.03676 | 40858 ft | 432 kts | 320° |
| 2026-05-09 23:37 | 28.66385 | 76.99030 | 40857 ft | 433 kts | 318° |
| 2026-05-09 23:38 | 28.70691 | 76.94300 | 40856 ft | 433 kts | 317° |
| 2026-05-09 23:38 | 28.75033 | 76.89543 | 40855 ft | 433 kts | 318° |
| 2026-05-09 23:39 | 28.79386 | 76.84808 | 40854 ft | 432 kts | 318° |
| 2026-05-09 23:39 | 28.83957 | 76.80390 | 40854 ft | 431 kts | 324° |
| 2026-05-09 23:40 | 28.88776 | 76.76331 | 40852 ft | 430 kts | 324° |
| 2026-05-09 23:40 | 28.93589 | 76.72355 | 40851 ft | 430 kts | 324° |
| 2026-05-09 23:41 | 28.98435 | 76.68352 | 40849 ft | 429 kts | 324° |
| 2026-05-09 23:41 | 29.03264 | 76.64345 | 40849 ft | 429 kts | 324° |
| 2026-05-09 23:42 | 29.08056 | 76.60359 | 40847 ft | 429 kts | 324° |
| 2026-05-09 23:42 | 29.12876 | 76.56345 | 40844 ft | 429 kts | 324° |
| 2026-05-09 23:43 | 29.17692 | 76.52329 | 40843 ft | 428 kts | 324° |
| 2026-05-09 23:43 | 29.22507 | 76.48310 | 40840 ft | 428 kts | 324° |
| 2026-05-09 23:44 | 29.27316 | 76.44290 | 40841 ft | 428 kts | 324° |
| 2026-05-09 23:44 | 29.32091 | 76.40295 | 40841 ft | 428 kts | 324° |
| 2026-05-09 23:45 | 29.39297 | 76.34256 | 40833 ft | 427 kts | 324° |
| 2026-05-09 23:45 | 29.44094 | 76.30230 | 40832 ft | 427 kts | 324° |
| 2026-05-09 23:46 | 29.48888 | 76.26202 | 40832 ft | 427 kts | 324° |
| 2026-05-09 23:46 | 29.53647 | 76.22198 | 40833 ft | 427 kts | 324° |
| 2026-05-09 23:47 | 29.58436 | 76.18165 | 40828 ft | 427 kts | 324° |
| 2026-05-09 23:47 | 29.62415 | 76.14809 | 40828 ft | 427 kts | 324° |
| 2026-05-09 23:48 | 29.67201 | 76.10769 | 40824 ft | 427 kts | 323° |
| 2026-05-09 23:49 | 29.75145 | 76.04053 | 40824 ft | 426 kts | 323° |
| 2026-05-09 23:49 | 29.79114 | 76.00692 | 40821 ft | 426 kts | 323° |
| 2026-05-09 23:50 | 29.83888 | 75.96652 | 40822 ft | 426 kts | 324° |
| 2026-05-09 23:50 | 29.88701 | 75.92662 | 40819 ft | 426 kts | 324° |
| 2026-05-09 23:51 | 29.94301 | 75.88049 | 40818 ft | 426 kts | 324° |
| 2026-05-09 23:51 | 29.98298 | 75.84742 | 40817 ft | 425 kts | 324° |
| 2026-05-09 23:52 | 30.03102 | 75.80755 | 40816 ft | 425 kts | 324° |
| 2026-05-09 23:52 | 30.07908 | 75.76759 | 40813 ft | 425 kts | 324° |
| 2026-05-09 23:53 | 30.12704 | 75.72766 | 40811 ft | 425 kts | 324° |
| 2026-05-09 23:53 | 30.17505 | 75.68764 | 40812 ft | 425 kts | 323° |
| 2026-05-09 23:54 | 30.22265 | 75.64793 | 40808 ft | 425 kts | 323° |
| 2026-05-09 23:54 | 30.27063 | 75.60784 | 40812 ft | 425 kts | 323° |
| 2026-05-09 23:55 | 30.31851 | 75.56779 | 40810 ft | 425 kts | 323° |
| 2026-05-09 23:55 | 30.36642 | 75.52766 | 40811 ft | 425 kts | 323° |
| 2026-05-09 23:56 | 30.41398 | 75.48779 | 40810 ft | 425 kts | 323° |
| 2026-05-09 23:56 | 30.46184 | 75.44760 | 40814 ft | 425 kts | 323° |
| 2026-05-09 23:57 | 30.50967 | 75.40739 | 40812 ft | 425 kts | 323° |
| 2026-05-09 23:57 | 30.55747 | 75.36716 | 40811 ft | 425 kts | 323° |
| 2026-05-09 23:58 | 30.60525 | 75.32690 | 40810 ft | 425 kts | 323° |
| 2026-05-09 23:58 | 30.65271 | 75.28685 | 40814 ft | 424 kts | 323° |
| 2026-05-09 23:59 | 30.70048 | 75.24650 | 40816 ft | 424 kts | 323° |
| 2026-05-09 23:59 | 30.74823 | 75.20610 | 40816 ft | 424 kts | 323° |
| 2026-05-10 00:00 | 30.79580 | 75.16548 | 40810 ft | 424 kts | 321° |
| 2026-05-10 00:00 | 30.83969 | 75.12034 | 40813 ft | 424 kts | 317° |
| 2026-05-10 00:01 | 30.88284 | 75.07365 | 40812 ft | 424 kts | 316° |
| 2026-05-10 00:01 | 30.92584 | 75.02668 | 40817 ft | 424 kts | 316° |
| 2026-05-10 00:02 | 30.96881 | 74.97977 | 40815 ft | 424 kts | 316° |
| 2026-05-10 00:02 | 31.01155 | 74.93315 | 40816 ft | 424 kts | 316° |
| 2026-05-10 00:03 | 31.05455 | 74.88620 | 40815 ft | 423 kts | 316° |
| 2026-05-10 00:03 | 31.09752 | 74.83924 | 40851 ft | 423 kts | 316° |
| 2026-05-10 00:03 | 31.11895 | 74.81579 | 41110 ft | 421 kts | 316° |
| 2026-05-10 00:04 | 31.14030 | 74.79242 | 41429 ft | 420 kts | 316° |
| 2026-05-10 00:04 | 31.16161 | 74.76907 | 41676 ft | 420 kts | 316° |
| 2026-05-10 00:04 | 31.18294 | 74.74568 | 41809 ft | 423 kts | 316° |
| 2026-05-10 00:05 | 31.22581 | 74.69862 | 41818 ft | 427 kts | 316° |
| 2026-05-10 00:05 | 31.26903 | 74.65114 | 41822 ft | 426 kts | 316° |
| 2026-05-10 00:06 | 31.31214 | 74.60370 | 41821 ft | 426 kts | 316° |
| 2026-05-10 00:06 | 31.35639 | 74.55762 | 41824 ft | 427 kts | 320° |
| 2026-05-10 00:07 | 31.40298 | 74.51531 | 41826 ft | 427 kts | 321° |
| 2026-05-10 00:07 | 31.45004 | 74.47288 | 41829 ft | 427 kts | 321° |
| 2026-05-10 00:08 | 31.49714 | 74.43045 | 41828 ft | 427 kts | 321° |
| 2026-05-10 00:08 | 31.54424 | 74.38799 | 41831 ft | 427 kts | 320° |
| 2026-05-10 00:09 | 31.59097 | 74.34581 | 41830 ft | 427 kts | 320° |
| 2026-05-10 00:09 | 31.63804 | 74.30328 | 41824 ft | 427 kts | 320° |
| 2026-05-10 00:10 | 31.68505 | 74.26074 | 41819 ft | 427 kts | 320° |
| 2026-05-10 00:10 | 31.73208 | 74.21813 | 41820 ft | 427 kts | 320° |
| 2026-05-10 00:11 | 31.77911 | 74.17547 | 41814 ft | 427 kts | 320° |
| 2026-05-10 00:11 | 31.82580 | 74.13305 | 41817 ft | 427 kts | 320° |
| 2026-05-10 00:12 | 31.87278 | 74.09032 | 41818 ft | 427 kts | 320° |
| 2026-05-10 00:12 | 31.91974 | 74.04755 | 41817 ft | 427 kts | 320° |
| 2026-05-10 00:13 | 31.96673 | 74.00469 | 41822 ft | 427 kts | 320° |
| 2026-05-10 00:13 | 32.01369 | 73.96181 | 41824 ft | 427 kts | 320° |
| 2026-05-10 00:14 | 32.06032 | 73.91917 | 41824 ft | 427 kts | 320° |
| 2026-05-10 00:14 | 32.10726 | 73.87619 | 41829 ft | 427 kts | 320° |
| 2026-05-10 00:15 | 32.15419 | 73.83316 | 41827 ft | 427 kts | 319° |
| 2026-05-10 00:15 | 32.20112 | 73.79007 | 41827 ft | 427 kts | 319° |
| 2026-05-10 00:16 | 32.24775 | 73.74720 | 41829 ft | 427 kts | 319° |
| 2026-05-10 00:16 | 32.29450 | 73.70417 | 41205 ft | 425 kts | 319° |
| 2026-05-10 00:16 | 32.31786 | 73.68264 | 40364 ft | 424 kts | 319° |
| 2026-05-10 00:17 | 32.34087 | 73.66143 | 39539 ft | 418 kts | 319° |
| 2026-05-10 00:17 | 32.36382 | 73.64025 | 38730 ft | 419 kts | 319° |
| 2026-05-10 00:17 | 32.38675 | 73.61908 | 37831 ft | 417 kts | 319° |
| 2026-05-10 00:17 | 32.40968 | 73.59788 | 36903 ft | 419 kts | 319° |
| 2026-05-10 00:18 | 32.43269 | 73.57659 | 36032 ft | 422 kts | 320° |
| 2026-05-10 00:18 | 32.45568 | 73.55530 | 35188 ft | 431 kts | 320° |
| 2026-05-10 00:18 | 32.47956 | 73.53317 | 34366 ft | 438 kts | 320° |
| 2026-05-10 00:18 | 32.50362 | 73.51089 | 33512 ft | 441 kts | 320° |
| 2026-05-10 00:19 | 32.52787 | 73.48841 | 32587 ft | 444 kts | 320° |
| 2026-05-10 00:19 | 32.55227 | 73.46577 | 31783 ft | 446 kts | 321° |
| 2026-05-10 00:19 | 32.57659 | 73.44320 | 31198 ft | 442 kts | 321° |
| 2026-05-10 00:19 | 32.60074 | 73.42077 | 30572 ft | 440 kts | 321° |
| 2026-05-10 00:20 | 32.62475 | 73.39845 | 29931 ft | 439 kts | 321° |
| 2026-05-10 00:20 | 32.64844 | 73.37641 | 29208 ft | 437 kts | 321° |
| 2026-05-10 00:20 | 32.67230 | 73.35421 | 28553 ft | 435 kts | 321° |
| 2026-05-10 00:20 | 32.69599 | 73.33215 | 27989 ft | 430 kts | 321° |
| 2026-05-10 00:21 | 32.71940 | 73.31033 | 27415 ft | 426 kts | 321° |
| 2026-05-10 00:21 | 32.74273 | 73.28872 | 26786 ft | 424 kts | 322° |
| 2026-05-10 00:21 | 32.76790 | 73.27066 | 26121 ft | 424 kts | 335° |
| 2026-05-10 00:21 | 32.79618 | 73.26096 | 25475 ft | 424 kts | 349° |
| 2026-05-10 00:22 | 32.82539 | 73.25574 | 24823 ft | 424 kts | 351° |
| 2026-05-10 00:22 | 32.85421 | 73.25118 | 24185 ft | 423 kts | 351° |
| 2026-05-10 00:22 | 32.88336 | 73.24653 | 23519 ft | 423 kts | 351° |
| 2026-05-10 00:22 | 32.91250 | 73.24180 | 22770 ft | 422 kts | 351° |
| 2026-05-10 00:23 | 32.94145 | 73.23706 | 22077 ft | 419 kts | 351° |
| 2026-05-10 00:23 | 32.97022 | 73.23232 | 21396 ft | 416 kts | 351° |
| 2026-05-10 00:23 | 32.99882 | 73.22759 | 20720 ft | 413 kts | 351° |
| 2026-05-10 00:23 | 33.02722 | 73.22288 | 20033 ft | 411 kts | 351° |
| 2026-05-10 00:24 | 33.05543 | 73.21818 | 19347 ft | 409 kts | 351° |
| 2026-05-10 00:24 | 33.08359 | 73.21349 | 18661 ft | 407 kts | 351° |
| 2026-05-10 00:24 | 33.11119 | 73.20888 | 17949 ft | 406 kts | 351° |
| 2026-05-10 00:24 | 33.13904 | 73.20423 | 17216 ft | 402 kts | 351° |
| 2026-05-10 00:25 | 33.16663 | 73.19963 | 16531 ft | 398 kts | 351° |
| 2026-05-10 00:25 | 33.19393 | 73.19507 | 15847 ft | 394 kts | 351° |
| 2026-05-10 00:25 | 33.22095 | 73.19063 | 15186 ft | 390 kts | 351° |